ENDU

Bardufoss

Airport
ICAO code
ENDU
Summary
ICAO Region
EUR
ICAO Territory
Location

Bardufoss,

Elevation
252 ft
Coordinates
69° 3' 21" N , 18° 32' 25" E
KCC
Airport CFIT
Altimeter Temperature Error Correction
Airport GND
Aircraft Ground De/Anti Icing
Airport RE
Landing on Contaminated Runways
Airport WX
Low Level Turbulence
Metar
Observation
ENDU 271450Z 20010KT 170V230 9999 -RA FEW005 SCT020 BKN030 04/01 Q0998 TEMPO 21015G25KT RA RMK WIND 1100FT 19019KT WIND 2200FT 21035KT
Station
Bardufoss
Date/Time
2023-01-27 14:50:00
Wind direction
200°
Wind speed
10 kts
Lowest cloud amount
few clouds
Temperature
4°C
Dew point
1°C
Humidity
80%
QNH
998 hPa
Weather condition
light rain

Description

Civil/Military (RNoAF) airport serving the Målselvdalen valley region of northern Norway.

Climatology

Subarctic climate (Köppen climate classification Dfc) - Although not far from the coast, Bardufoss and Målselvdalen is known for a somewhat more continental climate, and hence, colder winters (but with less humidity and little wind) compared to the coastal areas.

Runways

Designator Length Width Surface Rops
10/28 2443 45 ASP Yes/Yes

Airport map

Aerial View

SKYbrary Partners:

Safety knowledge contributed by: